Marshfield Municipal Airport

About
Name: Marshfield Municipal Airport
Identifier:  MFI/KMFI
Local Time:  25. Aug 04:11 CDT
Location
Flights per Day
0 flights
Distance: 1,107km (688mi)
Punctuality
-100% (0 flights per day delayed)
Delay Average: 13 minutes
Current Weather
 11 C (Humidity: 87%)
  3kt (5km/h / 3mph) from 80°
  16km (10 mi.)
 
 METAR KMFI 250854Z AUTO 08003KT 10SM CLR 11/09 A3018 RMK AO2 SLP219 T01060089 58003

Current Flights

Departures
Number Departure To Airline
Arrivals
Number Arrival From Airline

Current Delays

Departures
N/A
Arrivals
N/A

Destinations

Top Destinations
Airport Flights
per week
Seats
per week
  Dubuque (DBQ) 0 - 0 0
  Burlington (QQU) 0 - 0 0
  Hancock (CMX) 0 - 0 0
  Columbus (CLU) 0 - 0 0
  Bedford (BFR) 0 - 0 0
  Tunica (UTM) 0 - 0 0

Airlines & Planes

Top Airlines
Airline Flights
per Day
Seats
per Day
Jet Charter Inc ( Franklin Lakes Nj ) 0 -
  Flybe Nordic 0 -
Nordwind Airlines 0 -
  Novair 0 -
Top Plane Types
Model Flights Seats
Piper PA28-181 0.1/day - 0
Cirrus SR22 0.1/day - 0